Amoy Dream — VRHD5 — position and weather

sailwx.info

Track history (hours):
 
Tides and Currents Weather Stations Pressure Air Temp Water Temp Dewpoint Dewpoint Depression Visibility Wind Speed Wind Dir Waves Ship Positions

Amoy Dream

Last reported at 2015-Feb-05 17:33 UTC. Time now 2015-Mar-01 08:28 UTC.
Position N 35°59' W 005°31'.
Warning: this ship's position is 23 days out of date.

Length 190 m; draft 11.5 m.

Type: Cargo ship. MMSI: 477826600.

Date/timePositionNaut miles runAvg speedWind from/ knotsBaromVisibWave heightAir tempDewpointWater temp
2015-Feb-05 17:33N 35°59' W 005°31'9 9.1
2015-Feb-05 16:34N 36°01' W 005°20'9 8.5
2015-Feb-05 15:33N 36°03' W 005°10'  
2015-Feb-01 06:16N 36°31' E 013°41'6 8.8
2015-Feb-01 05:32N 36°29' E 013°49'12 9.4
2015-Feb-01 04:18N 36°25' E 014°03'9 9.5
2015-Feb-01 03:22N 36°25' E 014°14'810.0
2015-Feb-01 02:34N 36°25' E 014°24'  
2015-Jan-29 18:30N 38°44' E 025°08'6713.1
2015-Jan-29 13:23N 39°45' E 025°45'1213.3
2015-Jan-29 12:27N 39°56' E 025°53'2711.9
2015-Jan-29 10:10N 40°09' E 026°23'2211.3
2015-Jan-29 08:14N 40°25' E 026°43'6 6.3
2015-Jan-29 07:20N 40°28' E 026°50'3 0.5
2015-Jan-29 01:09N 40°29' E 026°53'8412.7
2015-Jan-28 18:33N 40°53' E 028°39'1212.0
2015-Jan-28 17:32N 40°56' E 028°55'14 9.8
2015-Jan-28 16:04N 41°09' E 029°04'6 7.9
2015-Jan-28 15:17N 41°14' E 029°08'5 6.6
2015-Jan-28 14:33N 41°19' E 029°08'4 3.8
2015-Jan-28 13:33N 41°22' E 029°06'1 0.7
2015-Jan-28 12:33N 41°22' E 029°07'2 1.8
2015-Jan-28 11:32N 41°23' E 029°06'1 1.2
2015-Jan-28 10:33N 41°22' E 029°06'2 1.9
2015-Jan-28 09:33N 41°23' E 029°03'1 0.8
2015-Jan-28 08:33N 41°22' E 029°03'1 1.5
2015-Jan-28 07:33N 41°21' E 029°04'1 1.3
2015-Jan-28 06:33N 41°21' E 029°02'3 2.5
2015-Jan-28 05:26N 41°22' E 029°06'7 8.0
2015-Jan-28 04:33N 41°24' E 029°15'24712.9
2015-Jan-27 09:24N 43°15' E 034°13'1313.0
2015-Jan-27 08:24N 43°21' E 034°29'1313.0
2015-Jan-27 07:22N 43°27' E 034°45'1312.9
2015-Jan-27 06:23N 43°33' E 035°01'1212.8
2015-Jan-27 05:27N 43°38' E 035°16'1213.0
2015-Jan-27 04:33N 43°44' E 035°30'9113.0
2015-Jan-26 21:33N 44°24' E 037°24'1313.5
2015-Jan-26 20:33N 44°29' E 037°41'1110.9
2015-Jan-26 19:33N 44°34' E 037°55'1 0.7
2015-Jan-26 18:31N 44°35' E 037°54'  
Track history (hours):
 
Tides and Currents Weather Stations Pressure Air Temp Water Temp Dewpoint Dewpoint Depression Visibility Wind Speed Wind Dir Waves Ship Positions

Amoy Dream

Last reported at 2015-Feb-05 17:33 UTC. Time now 2015-Mar-01 08:28 UTC.
Position N 35°59' W 005°31'.
Warning: this ship's position is 23 days out of date.

Length 190 m; draft 11.5 m.

Type: Cargo ship. MMSI: 477826600.

Date/timePositionNaut miles runAvg speedWind from/ knotsBaromVisibWave heightAir tempDewpointWater temp
2015-Feb-05 17:33N 35°59' W 005°31'9 9.1
2015-Feb-05 16:34N 36°01' W 005°20'9 8.5
2015-Feb-05 15:33N 36°03' W 005°10'  
2015-Feb-01 06:16N 36°31' E 013°41'6 8.8
2015-Feb-01 05:32N 36°29' E 013°49'12 9.4
2015-Feb-01 04:18N 36°25' E 014°03'9 9.5
2015-Feb-01 03:22N 36°25' E 014°14'810.0
2015-Feb-01 02:34N 36°25' E 014°24'  
2015-Jan-29 18:30N 38°44' E 025°08'6713.1
2015-Jan-29 13:23N 39°45' E 025°45'1213.3
2015-Jan-29 12:27N 39°56' E 025°53'2711.9
2015-Jan-29 10:10N 40°09' E 026°23'2211.3
2015-Jan-29 08:14N 40°25' E 026°43'6 6.3
2015-Jan-29 07:20N 40°28' E 026°50'3 0.5
2015-Jan-29 01:09N 40°29' E 026°53'8412.7
2015-Jan-28 18:33N 40°53' E 028°39'1212.0
2015-Jan-28 17:32N 40°56' E 028°55'14 9.8
2015-Jan-28 16:04N 41°09' E 029°04'6 7.9
2015-Jan-28 15:17N 41°14' E 029°08'5 6.6
2015-Jan-28 14:33N 41°19' E 029°08'4 3.8
2015-Jan-28 13:33N 41°22' E 029°06'1 0.7
2015-Jan-28 12:33N 41°22' E 029°07'2 1.8
2015-Jan-28 11:32N 41°23' E 029°06'1 1.2
2015-Jan-28 10:33N 41°22' E 029°06'2 1.9
2015-Jan-28 09:33N 41°23' E 029°03'1 0.8
2015-Jan-28 08:33N 41°22' E 029°03'1 1.5
2015-Jan-28 07:33N 41°21' E 029°04'1 1.3
2015-Jan-28 06:33N 41°21' E 029°02'3 2.5
2015-Jan-28 05:26N 41°22' E 029°06'7 8.0
2015-Jan-28 04:33N 41°24' E 029°15'24712.9
2015-Jan-27 09:24N 43°15' E 034°13'1313.0
2015-Jan-27 08:24N 43°21' E 034°29'1313.0
2015-Jan-27 07:22N 43°27' E 034°45'1312.9
2015-Jan-27 06:23N 43°33' E 035°01'1212.8
2015-Jan-27 05:27N 43°38' E 035°16'1213.0
2015-Jan-27 04:33N 43°44' E 035°30'9113.0
2015-Jan-26 21:33N 44°24' E 037°24'1313.5
2015-Jan-26 20:33N 44°29' E 037°41'1110.9
2015-Jan-26 19:33N 44°34' E 037°55'1 0.7
2015-Jan-26 18:31N 44°35' E 037°54'  

Dump ship's entire track history